Time;durP1;ratioP1;P1;durP2;ratioP2;P2;SDS_P1;SDS_P2;PMS_P1;PMS_P2;Temp;Humidity;BMP_temperature;BMP_pressure;BME280_temperature;BME280_humidity;BME280_pressure;Samples;Min_cycle;Max_cycle;Signal;HPM_P1;HPM_P2
2021/05/02 00:01:24;;;;;;;34.97;25.65;;;;;;;;;;5094401;28;20107;-68
2021/05/02 00:03:49;;;;;;;34.45;26.20;;;;;;;;;;5094441;28;20028;-68
2021/05/02 00:06:16;;;;;;;34.60;26.48;;;;;;;;;;5094373;28;20024;-67
2021/05/02 00:08:42;;;;;;;33.03;24.55;;;;;;;;;;5094402;28;20107;-67
2021/05/02 00:11:08;;;;;;;30.35;23.35;;;;;;;;;;5093192;28;20095;-68
2021/05/02 00:13:34;;;;;;;35.72;25.67;;;;;;;;;;5094200;28;20020;-68
2021/05/02 00:15:59;;;;;;;32.30;26.77;;;;;;;;;;5094075;28;20027;-68
2021/05/02 00:18:25;;;;;;;34.35;25.30;;;;;;;;;;5092914;28;20044;-67
2021/05/02 00:20:54;;;;;;;33.00;23.35;;;;;;;;;;5094180;28;20024;-68
2021/05/02 00:23:20;;;;;;;33.85;24.13;;;;;;;;;;5094041;28;20107;-68
2021/05/02 00:25:46;;;;;;;31.08;23.40;;;;;;;;;;5092581;28;20115;-68
2021/05/02 00:28:12;;;;;;;36.20;25.10;;;;;;;;;;5092813;28;20073;-68
2021/05/02 00:30:38;;;;;;;34.90;26.20;;;;;;;;;;5092707;28;20024;-68
2021/05/02 00:33:05;;;;;;;35.22;26.77;;;;;;;;;;5093888;28;20363;-68
2021/05/02 00:35:31;;;;;;;38.75;26.42;;;;;;;;;;5092373;28;20016;-67
2021/05/02 00:37:56;;;;;;;40.92;27.67;;;;;;;;;;5093832;28;20385;-68
2021/05/02 00:40:30;;;;;;;39.30;28.55;;;;;;;;;;5093693;28;20020;-68
2021/05/02 00:42:58;;;;;;;38.40;24.80;;;;;;;;;;5093063;28;20110;-68
2021/05/02 00:45:24;;;;;;;40.35;26.73;;;;;;;;;;5093226;28;20038;-68
2021/05/02 00:47:53;;;;;;;35.10;26.02;;;;;;;;;;5093630;28;20039;-68
2021/05/02 00:50:21;;;;;;;39.58;29.85;;;;;;;;;;5093601;28;20061;-68
2021/05/02 00:52:47;;;;;;;41.28;28.90;;;;;;;;;;5092279;28;20024;-68
2021/05/02 00:55:14;;;;;;;38.67;27.17;;;;;;;;;;5093511;28;20482;-68
2021/05/02 00:57:39;;;;;;;37.35;28.13;;;;;;;;;;5093422;28;20428;-69
2021/05/02 01:00:06;;;;;;;39.80;28.58;;;;;;;;;;5075338;28;20031;-68
2021/05/02 01:02:32;;;;;;;34.70;25.70;;;;;;;;;;5093514;28;20032;-68
2021/05/02 01:05:01;;;;;;;37.88;26.55;;;;;;;;;;5093433;28;20024;-68
2021/05/02 01:07:34;;;;;;;33.22;24.77;;;;;;;;;;5093257;28;20024;-68
2021/05/02 01:10:03;;;;;;;33.28;23.70;;;;;;;;;;5093465;28;20025;-68
2021/05/02 01:12:29;;;;;;;34.08;26.25;;;;;;;;;;5093297;28;20016;-68
2021/05/02 01:14:57;;;;;;;33.60;22.98;;;;;;;;;;5093253;28;20023;-68
2021/05/02 01:17:24;;;;;;;34.83;23.77;;;;;;;;;;5093249;28;20012;-68
2021/05/02 01:19:49;;;;;;;36.28;25.95;;;;;;;;;;5093160;28;20478;-69
2021/05/02 01:22:16;;;;;;;35.63;23.00;;;;;;;;;;5093201;28;20232;-68
2021/05/02 01:24:51;;;;;;;32.67;22.95;;;;;;;;;;5093154;28;20047;-68
2021/05/02 01:27:22;;;;;;;32.88;22.30;;;;;;;;;;5093109;28;20504;-68
2021/05/02 01:29:48;;;;;;;34.35;22.13;;;;;;;;;;5093231;28;20077;-68
2021/05/02 01:32:14;;;;;;;34.55;25.67;;;;;;;;;;5093191;28;20012;-68
2021/05/02 01:34:39;;;;;;;34.17;23.40;;;;;;;;;;5092035;28;20470;-68
2021/05/02 01:37:05;;;;;;;32.58;24.02;;;;;;;;;;5092980;28;20122;-67
2021/05/02 01:39:31;;;;;;;37.45;29.40;;;;;;;;;;5092934;28;20020;-68
2021/05/02 01:41:56;;;;;;;39.58;26.50;;;;;;;;;;5091841;28;20099;-67
2021/05/02 01:44:22;;;;;;;38.15;28.10;;;;;;;;;;5092891;28;20052;-68
2021/05/02 01:46:47;;;;;;;37.58;28.90;;;;;;;;;;5092769;28;20036;-67
2021/05/02 01:49:17;;;;;;;40.08;28.52;;;;;;;;;;5091783;28;20070;-67
2021/05/02 01:51:43;;;;;;;40.72;27.95;;;;;;;;;;5093006;28;20025;-67
2021/05/02 01:54:09;;;;;;;43.45;29.75;;;;;;;;;;5094509;28;20032;-68
2021/05/02 01:56:35;;;;;;;41.05;27.83;;;;;;;;;;5096859;28;20104;-67
2021/05/02 01:59:01;;;;;;;43.05;30.13;;;;;;;;;;5096838;28;20070;-67
2021/05/02 02:01:29;;;;;;;45.80;31.95;;;;;;;;;;5096705;28;20035;-67
2021/05/02 02:03:56;;;;;;;44.50;29.85;;;;;;;;;;5096677;28;20040;-67
2021/05/02 02:06:22;;;;;;;42.35;31.30;;;;;;;;;;5096612;28;20023;-66
2021/05/02 02:08:47;;;;;;;46.20;31.60;;;;;;;;;;5096676;28;20024;-67
2021/05/02 02:11:12;;;;;;;47.08;29.60;;;;;;;;;;5096658;28;20061;-67
2021/05/02 02:13:38;;;;;;;43.28;28.65;;;;;;;;;;5096528;28;20050;-67
2021/05/02 02:16:04;;;;;;;46.75;29.80;;;;;;;;;;5096458;28;20488;-68
2021/05/02 02:18:30;;;;;;;43.75;31.15;;;;;;;;;;5096356;28;20438;-67
2021/05/02 02:20:55;;;;;;;43.72;30.08;;;;;;;;;;5095061;28;20067;-66
2021/05/02 02:23:23;;;;;;;44.15;28.17;;;;;;;;;;5096375;28;20435;-66
2021/05/02 02:25:49;;;;;;;48.15;30.92;;;;;;;;;;5096301;28;20020;-66
2021/05/02 02:28:16;;;;;;;47.25;31.02;;;;;;;;;;5096129;28;20028;-67
2021/05/02 02:30:44;;;;;;;50.30;34.72;;;;;;;;;;5096133;28;20051;-66
2021/05/02 02:33:09;;;;;;;48.03;30.05;;;;;;;;;;5095676;28;20032;-68
2021/05/02 02:35:39;;;;;;;44.30;28.77;;;;;;;;;;5095100;28;20072;-67
2021/05/02 02:38:07;;;;;;;46.43;31.20;;;;;;;;;;5094811;28;20020;-68
2021/05/02 02:40:35;;;;;;;49.20;31.63;;;;;;;;;;5095893;28;20043;-68
2021/05/02 02:43:02;;;;;;;44.88;28.70;;;;;;;;;;5094456;28;20398;-68
2021/05/02 02:45:29;;;;;;;43.95;27.55;;;;;;;;;;5095803;28;20032;-68
2021/05/02 02:47:57;;;;;;;44.17;29.67;;;;;;;;;;5095834;28;20028;-67
2021/05/02 02:50:22;;;;;;;42.58;29.73;;;;;;;;;;5095919;28;20023;-68
2021/05/02 02:52:49;;;;;;;40.67;29.20;;;;;;;;;;5095814;28;20024;-68
2021/05/02 02:55:16;;;;;;;49.42;32.20;;;;;;;;;;5095829;28;20012;-68
2021/05/02 02:58:01;;;;;;;31.52;21.00;;;;;;;;;;5095586;28;20024;-68
2021/05/02 03:00:28;;;;;;;47.50;31.35;;;;;;;;;;5095569;28;20070;-68
2021/05/02 03:02:56;;;;;;;43.85;28.48;;;;;;;;;;5095597;28;20416;-68
2021/05/02 03:05:25;;;;;;;46.58;29.92;;;;;;;;;;5094277;28;20032;-69
2021/05/02 03:07:51;;;;;;;48.35;31.20;;;;;;;;;;5095389;28;20124;-68
2021/05/02 03:10:18;;;;;;;44.75;29.08;;;;;;;;;;5095407;28;20024;-68
2021/05/02 03:12:44;;;;;;;46.25;29.13;;;;;;;;;;5094105;28;20039;-67
2021/05/02 03:15:10;;;;;;;44.05;28.52;;;;;;;;;;5094063;28;20082;-68
2021/05/02 03:17:36;;;;;;;46.75;29.48;;;;;;;;;;5094034;28;20103;-68
2021/05/02 03:20:11;;;;;;;46.95;28.42;;;;;;;;;;5093871;28;20127;-67
2021/05/02 03:22:49;;;;;;;44.58;29.38;;;;;;;;;;5093871;28;20035;-68
2021/05/02 03:25:16;;;;;;;50.00;32.85;;;;;;;;;;5093953;28;20024;-68
2021/05/02 03:27:57;;;;;;;44.10;28.75;;;;;;;;;;5095188;28;20020;-68
2021/05/02 03:30:23;;;;;;;43.53;27.25;;;;;;;;;;5093958;28;20146;-68
2021/05/02 03:32:49;;;;;;;42.08;29.33;;;;;;;;;;5094957;28;20496;-68
2021/05/02 03:35:15;;;;;;;44.13;29.92;;;;;;;;;;5076724;28;20028;-67
2021/05/02 03:37:46;;;;;;;36.88;26.15;;;;;;;;;;5094877;28;20470;-67
2021/05/02 03:40:12;;;;;;;47.38;30.88;;;;;;;;;;5094884;28;20024;-67
2021/05/02 03:42:37;;;;;;;40.85;27.40;;;;;;;;;;5094287;28;20048;-68
2021/05/02 03:45:03;;;;;;;40.85;26.23;;;;;;;;;;5093657;28;20055;-67
2021/05/02 03:47:28;;;;;;;43.80;32.75;;;;;;;;;;5094628;28;20016;-67
2021/05/02 03:49:54;;;;;;;40.67;29.48;;;;;;;;;;5094640;28;20533;-68
2021/05/02 03:52:19;;;;;;;39.58;26.92;;;;;;;;;;5094615;28;20019;-67
2021/05/02 03:54:45;;;;;;;41.17;28.02;;;;;;;;;;5093297;28;20043;-68
2021/05/02 03:57:10;;;;;;;39.65;26.50;;;;;;;;;;5094556;28;20020;-67
2021/05/02 03:59:36;;;;;;;24.80;17.58;;;;;;;;;;5094376;28;20398;-68
2021/05/02 04:02:03;;;;;;;33.20;22.75;;;;;;;;;;5093029;28;20422;-67
2021/05/02 04:04:30;;;;;;;39.00;26.80;;;;;;;;;;5094455;28;20020;-68
2021/05/02 04:06:59;;;;;;;40.03;28.15;;;;;;;;;;5094417;28;20107;-68
2021/05/02 04:09:25;;;;;;;39.78;27.98;;;;;;;;;;5094199;28;20478;-67
2021/05/02 04:11:50;;;;;;;35.47;24.75;;;;;;;;;;5094221;28;20023;-68
2021/05/02 04:14:17;;;;;;;40.05;27.95;;;;;;;;;;5094184;28;20055;-69
2021/05/02 04:16:42;;;;;;;36.67;24.58;;;;;;;;;;5093821;28;20489;-68
2021/05/02 04:19:08;;;;;;;38.58;26.02;;;;;;;;;;5092771;28;20028;-68
2021/05/02 04:21:34;;;;;;;37.13;26.65;;;;;;;;;;5093952;28;20095;-68
2021/05/02 04:24:00;;;;;;;38.45;25.95;;;;;;;;;;5092800;28;20115;-68
2021/05/02 04:26:25;;;;;;;35.10;24.15;;;;;;;;;;5094388;28;20043;-68
2021/05/02 04:28:50;;;;;;;36.85;25.77;;;;;;;;;;5093863;28;20093;-68
2021/05/02 04:31:16;;;;;;;37.00;26.38;;;;;;;;;;5093787;28;20020;-67
2021/05/02 04:33:41;;;;;;;38.95;28.63;;;;;;;;;;5093896;28;20016;-67
2021/05/02 04:36:07;;;;;;;33.58;23.05;;;;;;;;;;5092449;28;20020;-67
2021/05/02 04:38:33;;;;;;;34.30;24.27;;;;;;;;;;5092590;28;20077;-67
2021/05/02 04:40:58;;;;;;;31.63;21.90;;;;;;;;;;5093742;28;20051;-67
2021/05/02 04:43:24;;;;;;;33.97;23.38;;;;;;;;;;5093081;28;20072;-67
2021/05/02 04:45:49;;;;;;;32.22;21.35;;;;;;;;;;5093478;28;20032;-68
2021/05/02 04:48:15;;;;;;;33.20;21.58;;;;;;;;;;5092329;28;20028;-68
2021/05/02 04:50:40;;;;;;;32.85;24.58;;;;;;;;;;5092242;28;20012;-68
2021/05/02 04:53:06;;;;;;;27.08;20.13;;;;;;;;;;5092290;28;20028;-68
2021/05/02 04:55:31;;;;;;;28.48;20.23;;;;;;;;;;5093531;28;20024;-68
2021/05/02 04:58:08;;;;;;;27.17;18.98;;;;;;;;;;5093476;28;20070;-68
2021/05/02 05:00:33;;;;;;;27.00;19.45;;;;;;;;;;5093377;28;20020;-69
2021/05/02 05:02:59;;;;;;;25.52;18.27;;;;;;;;;;5093430;28;20009;-68
2021/05/02 05:05:24;;;;;;;24.15;17.42;;;;;;;;;;5093360;28;20028;-68
2021/05/02 05:07:50;;;;;;;20.50;15.30;;;;;;;;;;5093322;28;20031;-68
2021/05/02 05:10:16;;;;;;;20.67;15.57;;;;;;;;;;5092037;28;20020;-68
2021/05/02 05:12:41;;;;;;;23.02;16.17;;;;;;;;;;5093316;28;20374;-68
2021/05/02 05:15:08;;;;;;;21.38;15.18;;;;;;;;;;5091992;28;20024;-68
2021/05/02 05:17:33;;;;;;;20.02;14.50;;;;;;;;;;5092045;28;20423;-69
2021/05/02 05:19:59;;;;;;;17.67;13.90;;;;;;;;;;5093141;28;20108;-68
2021/05/02 05:22:25;;;;;;;16.90;12.32;;;;;;;;;;5093042;28;20497;-68
2021/05/02 05:24:50;;;;;;;16.67;12.60;;;;;;;;;;5093056;28;20028;-68
2021/05/02 05:27:16;;;;;;;12.30;10.68;;;;;;;;;;5093066;28;20032;-68
2021/05/02 05:29:41;;;;;;;14.75;11.48;;;;;;;;;;5097183;28;20020;-68
2021/05/02 05:32:06;;;;;;;14.23;11.57;;;;;;;;;;5096101;28;20473;-68
2021/05/02 05:34:32;;;;;;;12.20;9.82;;;;;;;;;;5097237;28;20024;-68
2021/05/02 05:36:58;;;;;;;12.57;10.07;;;;;;;;;;5095853;28;20031;-68
2021/05/02 05:39:23;;;;;;;13.43;8.50;;;;;;;;;;5097252;28;20024;-68
2021/05/02 05:41:48;;;;;;;11.23;8.55;;;;;;;;;;5097159;28;20068;-68
2021/05/02 05:44:14;;;;;;;11.32;8.77;;;;;;;;;;5096969;28;20054;-69
2021/05/02 05:46:39;;;;;;;11.18;9.18;;;;;;;;;;5097075;28;20036;-69
2021/05/02 05:49:05;;;;;;;10.18;8.68;;;;;;;;;;5096944;28;20032;-68
2021/05/02 05:51:30;;;;;;;10.77;9.23;;;;;;;;;;5096814;28;20031;-68
2021/05/02 05:53:56;;;;;;;9.30;8.40;;;;;;;;;;5096881;28;20028;-69
2021/05/02 05:56:21;;;;;;;10.32;8.93;;;;;;;;;;5095689;28;20052;-67
2021/05/02 05:58:47;;;;;;;8.70;7.80;;;;;;;;;;5095538;28;20538;-67
2021/05/02 06:01:12;;;;;;;8.85;7.47;;;;;;;;;;5096814;28;20016;-67
2021/05/02 06:03:37;;;;;;;19.40;13.32;;;;;;;;;;5096838;28;20470;-68
2021/05/02 06:06:03;;;;;;;22.20;17.45;;;;;;;;;;5095382;28;20028;-67
2021/05/02 06:08:28;;;;;;;12.88;10.35;;;;;;;;;;5096659;28;20028;-67
2021/05/02 06:10:54;;;;;;;22.63;16.88;;;;;;;;;;5096709;28;20012;-67
2021/05/02 06:13:19;;;;;;;15.10;9.30;;;;;;;;;;5096462;28;20065;-67
2021/05/02 06:15:45;;;;;;;20.67;16.55;;;;;;;;;;5096170;28;20081;-67
2021/05/02 06:18:10;;;;;;;14.73;11.10;;;;;;;;;;5096452;28;20035;-67
2021/05/02 06:20:36;;;;;;;14.57;10.73;;;;;;;;;;5095206;28;20027;-67
2021/05/02 06:23:01;;;;;;;29.67;21.17;;;;;;;;;;5096373;28;20482;-67
2021/05/02 06:25:27;;;;;;;12.27;10.98;;;;;;;;;;5096312;28;20039;-67
2021/05/02 06:27:52;;;;;;;13.13;11.82;;;;;;;;;;5094898;28;20032;-67
2021/05/02 06:30:18;;;;;;;7.25;6.55;;;;;;;;;;5096112;28;20042;-67
2021/05/02 06:32:43;;;;;;;6.28;5.80;;;;;;;;;;5096284;28;20065;-68
2021/05/02 06:35:09;;;;;;;5.95;5.35;;;;;;;;;;5094816;28;20484;-67
2021/05/02 06:37:35;;;;;;;5.38;4.88;;;;;;;;;;5096157;28;20389;-67
2021/05/02 06:40:00;;;;;;;6.45;5.95;;;;;;;;;;5095721;28;20024;-67
2021/05/02 06:42:26;;;;;;;7.80;7.18;;;;;;;;;;5095599;28;20436;-68
2021/05/02 06:44:52;;;;;;;5.32;4.82;;;;;;;;;;5094913;28;20470;-69
2021/05/02 06:47:17;;;;;;;7.80;7.00;;;;;;;;;;5095830;28;20028;-68
2021/05/02 06:49:43;;;;;;;6.80;5.90;;;;;;;;;;5095713;28;20024;-68
2021/05/02 06:52:12;;;;;;;6.07;5.45;;;;;;;;;;5095931;28;20020;-67
2021/05/02 06:54:37;;;;;;;6.57;5.97;;;;;;;;;;5094768;28;20056;-68
2021/05/02 06:57:04;;;;;;;4.80;4.40;;;;;;;;;;5095850;28;20481;-68
2021/05/02 06:59:29;;;;;;;3.90;3.50;;;;;;;;;;5095745;28;20390;-68
2021/05/02 07:01:56;;;;;;;3.83;3.47;;;;;;;;;;5095668;28;20023;-67
2021/05/02 07:04:21;;;;;;;3.22;3.03;;;;;;;;;;5095560;28;20150;-66
2021/05/02 07:06:46;;;;;;;3.97;3.67;;;;;;;;;;5094232;28;20107;-65
2021/05/02 07:09:13;;;;;;;4.15;3.75;;;;;;;;;;5095637;28;20461;-66
2021/05/02 07:11:38;;;;;;;3.58;3.28;;;;;;;;;;5095554;28;20024;-65
2021/05/02 07:14:04;;;;;;;4.38;4.07;;;;;;;;;;5095191;28;20031;-67
2021/05/02 07:16:29;;;;;;;3.50;3.30;;;;;;;;;;5094537;28;20034;-66
2021/05/02 07:18:55;;;;;;;3.40;3.20;;;;;;;;;;5095466;28;20028;-67
2021/05/02 07:21:21;;;;;;;2.78;2.58;;;;;;;;;;5094028;28;20062;-66
2021/05/02 07:23:51;;;;;;;4.32;4.03;;;;;;;;;;5095275;28;20035;-66
2021/05/02 07:26:17;;;;;;;4.85;4.43;;;;;;;;;;5095586;28;20482;-66
2021/05/02 07:28:43;;;;;;;4.45;4.07;;;;;;;;;;5095332;28;20065;-66
2021/05/02 07:31:10;;;;;;;4.18;3.20;;;;;;;;;;5095164;28;20401;-65
2021/05/02 07:33:35;;;;;;;3.22;2.95;;;;;;;;;;5095061;28;20049;-65
2021/05/02 07:36:01;;;;;;;2.80;2.65;;;;;;;;;;5094890;28;20020;-65
2021/05/02 07:38:27;;;;;;;3.22;3.03;;;;;;;;;;5094172;28;20016;-66
2021/05/02 07:40:55;;;;;;;2.67;2.47;;;;;;;;;;5095597;28;20474;-66
2021/05/02 07:43:20;;;;;;;2.80;2.70;;;;;;;;;;5094643;28;20497;-65
2021/05/02 07:45:46;;;;;;;2.28;2.13;;;;;;;;;;5094694;28;20060;-66
2021/05/02 07:48:11;;;;;;;2.38;2.17;;;;;;;;;;5094918;28;20458;-66
2021/05/02 07:50:37;;;;;;;2.22;2.13;;;;;;;;;;5094355;28;20028;-65
2021/05/02 07:53:04;;;;;;;2.85;2.65;;;;;;;;;;5093562;28;20741;-65
2021/05/02 07:55:30;;;;;;;2.55;2.35;;;;;;;;;;5094804;28;20024;-65
2021/05/02 07:57:56;;;;;;;4.35;3.95;;;;;;;;;;5093518;28;20016;-65
2021/05/02 08:00:22;;;;;;;3.65;3.35;;;;;;;;;;5094681;28;20043;-65
2021/05/02 08:02:47;;;;;;;3.60;3.35;;;;;;;;;;5094337;28;20547;-66
2021/05/02 08:05:13;;;;;;;4.82;3.85;;;;;;;;;;5094383;28;20108;-65
2021/05/02 08:07:39;;;;;;;4.78;4.38;;;;;;;;;;5094165;28;20111;-66
2021/05/02 08:10:05;;;;;;;5.95;4.25;;;;;;;;;;5094426;28;20028;-68
2021/05/02 08:12:30;;;;;;;3.90;3.60;;;;;;;;;;5093391;28;20024;-70
2021/05/02 08:14:57;;;;;;;4.25;3.65;;;;;;;;;;5093558;28;20098;-71
2021/05/02 08:17:22;;;;;;;4.78;4.38;;;;;;;;;;5094506;28;20020;-71
2021/05/02 08:19:49;;;;;;;6.28;5.78;;;;;;;;;;5094553;28;20078;-71
2021/05/02 08:22:15;;;;;;;3.50;3.30;;;;;;;;;;5092999;28;20020;-71
2021/05/02 08:24:40;;;;;;;4.15;3.85;;;;;;;;;;5093296;28;20544;-71
2021/05/02 08:27:07;;;;;;;4.22;3.80;;;;;;;;;;5093093;28;20032;-71
2021/05/02 08:29:32;;;;;;;3.80;3.60;;;;;;;;;;5094736;28;20078;-71
2021/05/02 08:31:58;;;;;;;3.72;3.42;;;;;;;;;;5094636;28;20451;-70
2021/05/02 08:34:23;;;;;;;4.22;3.92;;;;;;;;;;5093004;28;20032;-71
2021/05/02 08:36:49;;;;;;;5.70;5.10;;;;;;;;;;5093174;28;20016;-71
2021/05/02 08:39:14;;;;;;;9.88;8.88;;;;;;;;;;5092928;28;20435;-71
2021/05/02 08:41:40;;;;;;;5.40;4.70;;;;;;;;;;5094433;28;20053;-70
2021/05/02 08:44:06;;;;;;;4.38;3.97;;;;;;;;;;5094036;28;20048;-71
2021/05/02 08:46:32;;;;;;;6.85;5.60;;;;;;;;;;5093899;28;20028;-71
2021/05/02 08:48:57;;;;;;;5.97;5.38;;;;;;;;;;5094198;28;20107;-69
2021/05/02 08:51:23;;;;;;;11.00;8.45;;;;;;;;;;5094153;28;20016;-69
2021/05/02 08:53:49;;;;;;;20.15;10.68;;;;;;;;;;5093938;28;20024;-69
2021/05/02 08:56:14;;;;;;;15.43;8.25;;;;;;;;;;5093991;28;20024;-69
2021/05/02 08:58:40;;;;;;;20.00;11.57;;;;;;;;;;5093484;28;20411;-69
2021/05/02 09:01:05;;;;;;;10.88;6.57;;;;;;;;;;5093892;28;20052;-69
2021/05/02 09:03:40;;;;;;;6.22;5.60;;;;;;;;;;5092655;28;20036;-69
2021/05/02 09:06:15;;;;;;;6.38;4.90;;;;;;;;;;5093514;28;20031;-69
2021/05/02 09:08:40;;;;;;;4.72;4.22;;;;;;;;;;5092513;28;20397;-69
2021/05/02 09:11:06;;;;;;;4.63;4.22;;;;;;;;;;5092324;28;20069;-69
2021/05/02 09:13:32;;;;;;;4.88;4.53;;;;;;;;;;5093948;28;20021;-69
2021/05/02 09:15:58;;;;;;;4.95;4.55;;;;;;;;;;5093755;28;20092;-69
2021/05/02 09:18:37;;;;;;;3.95;3.65;;;;;;;;;;5093740;28;20496;-69
2021/05/02 09:21:03;;;;;;;6.38;5.43;;;;;;;;;;5093891;28;20028;-69
2021/05/02 09:23:36;;;;;;;7.07;5.25;;;;;;;;;;5093637;28;20024;-69
2021/05/02 09:26:04;;;;;;;2.28;1.00;;;;;;;;;;5093485;28;20028;-68
2021/05/02 09:28:40;;;;;;;3.55;2.90;;;;;;;;;;5093363;28;20024;-68
2021/05/02 09:31:06;;;;;;;5.35;3.78;;;;;;;;;;5092116;28;20512;-68
2021/05/02 09:33:32;;;;;;;2.75;2.53;;;;;;;;;;5075153;28;20016;-69
2021/05/02 09:35:58;;;;;;;4.13;3.60;;;;;;;;;;5093475;28;20150;-68
2021/05/02 09:38:25;;;;;;;8.68;6.32;;;;;;;;;;5093701;28;20016;-69
2021/05/02 09:40:51;;;;;;;3.20;2.90;;;;;;;;;;5093445;28;20047;-69
2021/05/02 09:43:32;;;;;;;3.92;3.05;;;;;;;;;;5092884;28;20074;-69
2021/05/02 09:45:57;;;;;;;;;;;;;;;;;;5093776;28;20531;-69
2021/05/02 09:48:33;;;;;;;9.68;6.57;;;;;;;;;;5093151;28;19963;-69
2021/05/02 09:51:10;;;;;;;4.22;3.72;;;;;;;;;;5093222;28;20039;-69
2021/05/02 09:53:35;;;;;;;7.80;6.55;;;;;;;;;;5091699;28;20410;-72
2021/05/02 09:56:12;;;;;;;7.70;6.15;;;;;;;;;;5093242;28;20027;-72
2021/05/02 09:58:37;;;;;;;1.42;1.33;;;;;;;;;;5093163;28;20017;-72
2021/05/02 10:01:04;;;;;;;5.28;4.53;;;;;;;;;;5092207;28;20103;-72
2021/05/02 10:03:31;;;;;;;3.33;1.88;;;;;;;;;;5093316;28;20028;-70
2021/05/02 10:06:09;;;;;;;1.90;0.93;;;;;;;;;;5093211;28;20055;-73
2021/05/02 10:08:37;;;;;;;3.85;3.55;;;;;;;;;;5092023;28;20470;-62
2021/05/02 10:11:06;;;;;;;4.70;4.30;;;;;;;;;;5091820;28;20055;-64
2021/05/02 10:13:32;;;;;;;2.67;2.15;;;;;;;;;;5093356;28;20044;-64
2021/05/02 10:15:58;;;;;;;1.85;1.75;;;;;;;;;;5096882;28;20489;-65
2021/05/02 10:18:24;;;;;;;2.20;2.08;;;;;;;;;;5096901;28;20032;-64
2021/05/02 10:20:50;;;;;;;3.22;2.75;;;;;;;;;;5096778;28;20042;-64
2021/05/02 10:23:16;;;;;;;4.95;4.43;;;;;;;;;;5095313;28;20539;-64
2021/05/02 10:25:42;;;;;;;5.00;4.50;;;;;;;;;;5096727;28;20017;-64
2021/05/02 10:28:08;;;;;;;5.20;4.25;;;;;;;;;;5095442;28;20466;-73
2021/05/02 10:30:38;;;;;;;1.85;1.75;;;;;;;;;;5078573;28;20047;-73
2021/05/02 10:33:09;;;;;;;3.22;2.88;;;;;;;;;;5096771;28;20024;-73
2021/05/02 10:36:01;;;;;;;3.60;3.30;;;;;;;;;;5096940;28;20024;-73
2021/05/02 10:38:45;;;;;;;3.95;2.45;;;;;;;;;;5094755;28;20039;-73
2021/05/02 10:41:23;;;;;;;2.38;2.28;;;;;;;;;;5095402;28;20034;-73
2021/05/02 10:43:49;;;;;;;2.53;1.95;;;;;;;;;;5096032;28;20044;-73
2021/05/02 10:46:33;;;;;;;2.60;2.30;;;;;;;;;;5095834;28;20039;-73
2021/05/02 10:48:59;;;;;;;3.00;2.72;;;;;;;;;;5095100;28;20028;-73
2021/05/02 10:51:25;;;;;;;4.45;3.47;;;;;;;;;;5094893;28;20045;-73
2021/05/02 10:54:00;;;;;;;2.60;2.45;;;;;;;;;;5093576;28;20028;-73
2021/05/02 10:56:41;;;;;;;3.92;3.40;;;;;;;;;;5094550;28;20082;-73
2021/05/02 10:59:07;;;;;;;4.15;3.75;;;;;;;;;;5095792;28;20122;-73
2021/05/02 11:01:32;;;;;;;3.60;2.90;;;;;;;;;;5095746;28;20059;-73
2021/05/02 11:03:58;;;;;;;3.72;3.20;;;;;;;;;;5094196;28;20077;-73
2021/05/02 11:06:39;;;;;;;4.07;3.10;;;;;;;;;;5094900;28;20065;-73
2021/05/02 11:09:05;;;;;;;3.60;2.75;;;;;;;;;;5095502;28;20028;-73
2021/05/02 11:11:31;;;;;;;2.40;1.67;;;;;;;;;;5094113;28;20019;-73
2021/05/02 11:16:34;;;;;;;2.50;2.30;;;;;;;;;;5095358;28;20031;-73
2021/05/02 11:19:00;;;;;;;1.70;1.10;;;;;;;;;;5095238;28;20374;-73
2021/05/02 11:21:26;;;;;;;2.22;2.03;;;;;;;;;;5095350;28;20123;-73
2021/05/02 11:23:57;;;;;;;2.90;2.60;;;;;;;;;;5095281;28;20127;-74
2021/05/02 11:26:41;;;;;;;2.05;1.27;;;;;;;;;;5094162;28;20024;-74
2021/05/02 11:29:15;;;;;;;1.88;1.20;;;;;;;;;;5095266;28;20036;-72
2021/05/02 11:31:41;;;;;;;1.33;1.20;;;;;;;;;;5095160;28;20543;-73
2021/05/02 11:34:07;;;;;;;2.22;2.03;;;;;;;;;;5095061;28;20486;-73
2021/05/02 11:36:39;;;;;;;0.80;0.80;;;;;;;;;;5095002;28;20035;-73
2021/05/02 11:39:05;;;;;;;1.38;1.27;;;;;;;;;;5093689;28;20028;-73
2021/05/02 11:41:51;;;;;;;1.95;1.85;;;;;;;;;;5094867;28;20020;-73
2021/05/02 11:44:17;;;;;;;4.43;4.03;;;;;;;;;;5069262;28;20064;-73
2021/05/02 11:46:47;;;;;;;2.25;2.05;;;;;;;;;;5073328;28;20038;-73
2021/05/02 11:49:12;;;;;;;2.15;1.98;;;;;;;;;;5074525;28;20134;-73
2021/05/02 11:51:39;;;;;;;3.25;2.95;;;;;;;;;;5073144;28;20044;-73
2021/05/02 11:54:11;;;;;;;2.50;2.30;;;;;;;;;;5074505;28;20103;-73
2021/05/02 11:56:36;;;;;;;1.15;1.05;;;;;;;;;;5073195;28;20032;-73
2021/05/02 11:59:09;;;;;;;1.60;1.50;;;;;;;;;;5074386;28;20021;-73
2021/05/02 12:01:38;;;;;;;2.20;2.10;;;;;;;;;;5074347;28;20040;-73
2021/05/02 12:04:08;;;;;;;2.88;1.65;;;;;;;;;;5074249;28;20048;-73
2021/05/02 12:06:34;;;;;;;1.95;1.85;;;;;;;;;;5074015;28;20502;-73
2021/05/02 12:09:01;;;;;;;2.10;1.95;;;;;;;;;;5074126;28;20020;-73
2021/05/02 12:11:27;;;;;;;3.40;3.10;;;;;;;;;;5074020;28;20405;-73
2021/05/02 12:13:54;;;;;;;3.35;2.38;;;;;;;;;;5072713;28;20074;-73
2021/05/02 12:16:38;;;;;;;3.15;2.85;;;;;;;;;;5073899;28;20032;-73
2021/05/02 12:19:04;;;;;;;2.83;2.03;;;;;;;;;;5073875;28;20506;-73
2021/05/02 12:21:40;;;;;;;0.95;0.95;;;;;;;;;;5073811;28;20045;-73
2021/05/02 12:24:17;;;;;;;2.33;2.13;;;;;;;;;;5073696;28;20036;-73
2021/05/02 12:26:46;;;;;;;0.65;0.65;;;;;;;;;;5073657;28;20024;-73
2021/05/02 12:29:12;;;;;;;1.02;1.02;;;;;;;;;;5073762;28;20021;-73
2021/05/02 12:31:38;;;;;;;1.90;1.77;;;;;;;;;;5072418;28;20074;-73
2021/05/02 12:34:10;;;;;;;1.83;1.73;;;;;;;;;;5073715;28;20024;-73
2021/05/02 12:36:36;;;;;;;2.10;1.70;;;;;;;;;;5073351;28;20032;-73
2021/05/02 12:39:14;;;;;;;1.65;1.55;;;;;;;;;;5073204;28;20020;-73
2021/05/02 12:41:40;;;;;;;3.03;1.77;;;;;;;;;;5073463;28;20541;-73
2021/05/02 12:44:10;;;;;;;0.93;0.93;;;;;;;;;;5089562;28;20048;-73
2021/05/02 12:46:36;;;;;;;1.58;1.48;;;;;;;;;;5093582;28;20036;-73
2021/05/02 12:49:08;;;;;;;1.25;1.15;;;;;;;;;;5093742;28;20020;-73
2021/05/02 12:51:34;;;;;;;0.60;0.60;;;;;;;;;;5092470;28;20405;-73
2021/05/02 12:54:05;;;;;;;1.10;1.00;;;;;;;;;;5092408;28;20024;-73
2021/05/02 12:56:30;;;;;;;1.20;0.93;;;;;;;;;;5092401;28;20032;-73
2021/05/02 12:58:57;;;;;;;2.35;1.05;;;;;;;;;;5092385;28;20024;-73
2021/05/02 13:01:23;;;;;;;0.88;0.88;;;;;;;;;;5093510;28;20023;-73
2021/05/02 13:03:55;;;;;;;1.65;1.05;;;;;;;;;;5092065;28;20470;-73
2021/05/02 13:06:22;;;;;;;1.95;1.15;;;;;;;;;;5093350;28;20111;-73
2021/05/02 13:08:58;;;;;;;0.65;0.65;;;;;;;;;;5093256;28;20481;-73
2021/05/02 13:11:34;;;;;;;1.70;1.55;;;;;;;;;;5093314;28;20363;-74
2021/05/02 13:14:17;;;;;;;0.55;0.52;;;;;;;;;;5108848;28;20012;-74
2021/05/02 13:16:46;;;;;;;1.05;1.05;;;;;;;;;;5093344;28;20028;-74
2021/05/02 13:19:20;;;;;;;1.30;1.15;;;;;;;;;;5093287;28;20020;-73
2021/05/02 13:21:46;;;;;;;1.05;0.95;;;;;;;;;;5093306;28;20114;-73
2021/05/02 13:24:12;;;;;;;1.02;0.95;;;;;;;;;;5091994;28;20051;-74
2021/05/02 13:26:41;;;;;;;2.15;1.52;;;;;;;;;;5093237;28;20032;-74
2021/05/02 13:29:07;;;;;;;1.95;0.85;;;;;;;;;;5093207;28;20024;-74
2021/05/02 13:31:56;;;;;;;1.05;0.95;;;;;;;;;;5091638;28;20020;-74
2021/05/02 13:34:22;;;;;;;1.77;1.58;;;;;;;;;;5083605;28;20044;-73
2021/05/02 13:36:49;;;;;;;0.60;0.45;;;;;;;;;;5092000;28;20031;-73
2021/05/02 13:39:17;;;;;;;2.88;2.13;;;;;;;;;;5091832;28;20394;-74
2021/05/02 13:41:42;;;;;;;1.10;0.93;;;;;;;;;;5093015;28;20016;-74
2021/05/02 13:44:10;;;;;;;2.17;2.03;;;;;;;;;;5092765;28;20055;-75
2021/05/02 13:46:35;;;;;;;1.20;1.13;;;;;;;;;;5092988;28;20477;-74
2021/05/02 13:49:02;;;;;;;0.63;0.63;;;;;;;;;;5094174;28;20108;-74
2021/05/02 13:51:27;;;;;;;1.25;1.13;;;;;;;;;;5087681;28;20125;-73
2021/05/02 13:53:53;;;;;;;1.85;1.50;;;;;;;;;;5092462;28;20035;-73
2021/05/02 13:56:19;;;;;;;1.05;0.95;;;;;;;;;;5090701;28;20028;-73
2021/05/02 13:58:45;;;;;;;1.40;1.15;;;;;;;;;;5092116;28;20509;-73
2021/05/02 14:01:10;;;;;;;1.52;1.38;;;;;;;;;;5090490;28;20027;-73
2021/05/02 14:03:36;;;;;;;0.80;0.80;;;;;;;;;;5092087;28;20071;-72
2021/05/02 14:06:01;;;;;;;1.15;1.08;;;;;;;;;;5091800;28;20046;-70
2021/05/02 14:08:27;;;;;;;1.60;1.40;;;;;;;;;;5092169;28;20055;-71
2021/05/02 14:10:52;;;;;;;1.52;1.42;;;;;;;;;;5091570;28;20377;-72
2021/05/02 14:13:18;;;;;;;1.08;0.80;;;;;;;;;;5091836;28;20032;-73
2021/05/02 14:15:45;;;;;;;1.25;1.15;;;;;;;;;;5091937;28;20051;-70
2021/05/02 14:18:11;;;;;;;1.60;1.35;;;;;;;;;;5091660;28;20075;-70
2021/05/02 14:20:36;;;;;;;1.20;1.10;;;;;;;;;;5091457;28;20055;-70
2021/05/02 14:23:02;;;;;;;1.45;1.35;;;;;;;;;;5091832;28;20105;-70
2021/05/02 14:25:27;;;;;;;1.63;1.52;;;;;;;;;;5091730;28;20035;-70
2021/05/02 14:27:53;;;;;;;1.40;1.30;;;;;;;;;;5091307;28;20066;-70
2021/05/02 14:30:19;;;;;;;1.52;1.40;;;;;;;;;;5091316;28;20525;-70
2021/05/02 14:32:44;;;;;;;1.20;1.10;;;;;;;;;;5090083;28;20040;-70
2021/05/02 14:35:10;;;;;;;1.52;1.42;;;;;;;;;;5091536;28;20105;-70